createdAt,value
2022-07-30T00:01:24.268Z,66.99
2022-07-30T00:04:26.914Z,66.04
2022-07-30T00:07:29.565Z,66.26
2022-07-30T00:10:33.469Z,65.75
2022-07-30T00:13:36.201Z,66.02
2022-07-30T00:16:39.306Z,66.64
2022-07-30T00:19:42.016Z,66.82
2022-07-30T00:22:47.666Z,66.22
2022-07-30T00:25:51.818Z,66.24
2022-07-30T00:28:54.457Z,66.12
2022-07-30T00:31:57.105Z,65.67
2022-07-30T00:34:59.714Z,64.41
2022-07-30T00:38:02.417Z,64.77
2022-07-30T00:41:06.581Z,65.22
2022-07-30T00:44:09.221Z,65.30
2022-07-30T00:47:11.983Z,64.30
2022-07-30T00:50:15.959Z,64.46
2022-07-30T00:53:18.607Z,63.96
2022-07-30T00:56:22.636Z,64.27
2022-07-30T00:59:27.853Z,64.86
2022-07-30T01:02:30.642Z,64.91
2022-07-30T01:05:33.729Z,64.67
2022-07-30T01:08:36.310Z,64.84
2022-07-30T01:11:42.475Z,65.46
2022-07-30T01:14:45.363Z,65.74
2022-07-30T01:17:53.086Z,66.37
2022-07-30T01:21:02.964Z,66.42
2022-07-30T01:24:15.517Z,67.09
2022-07-30T01:27:20.846Z,67.40
2022-07-30T01:30:26.882Z,67.44
2022-07-30T01:33:30.549Z,67.00
2022-07-30T01:36:33.854Z,67.48
2022-07-30T01:39:36.677Z,67.93
2022-07-30T01:42:41.504Z,68.14
2022-07-30T01:45:44.690Z,67.31
2022-07-30T01:48:47.281Z,67.34
2022-07-30T01:51:50.175Z,66.75
2022-07-30T01:54:53.683Z,66.55
2022-07-30T01:57:58.485Z,66.84
2022-07-30T02:01:01.336Z,66.95
2022-07-30T02:04:04.880Z,67.39
2022-07-30T02:07:13.300Z,68.96
2022-07-30T02:10:19.020Z,70.54
2022-07-30T02:13:28.652Z,71.06
2022-07-30T02:16:32.805Z,72.12
2022-07-30T02:19:41.792Z,72.45
2022-07-30T02:22:48.270Z,72.71
2022-07-30T02:25:51.816Z,72.80
2022-07-30T02:28:58.492Z,72.47
2022-07-30T02:32:01.960Z,73.14
2022-07-30T02:35:10.605Z,73.37
2022-07-30T02:38:15.002Z,73.62
2022-07-30T02:41:18.256Z,73.44
2022-07-30T02:44:22.192Z,72.95
2022-07-30T02:47:24.688Z,72.26
2022-07-30T02:50:28.802Z,71.65
2022-07-30T02:53:32.158Z,71.12
2022-07-30T02:56:35.785Z,71.40
2022-07-30T02:59:41.456Z,71.80
2022-07-30T03:02:45.865Z,70.31
2022-07-30T03:05:51.912Z,69.82
2022-07-30T03:08:54.936Z,69.65
2022-07-30T03:11:58.271Z,69.14
2022-07-30T03:15:02.082Z,68.99
2022-07-30T03:18:04.562Z,68.74
2022-07-30T03:21:09.598Z,68.59
2022-07-30T03:24:13.064Z,68.71
2022-07-30T03:27:16.309Z,68.09
2022-07-30T03:30:20.110Z,66.84
2022-07-30T03:33:22.844Z,68.86
2022-07-30T03:36:26.206Z,69.23
2022-07-30T03:39:29.606Z,68.19
2022-07-30T03:42:33.029Z,67.08
2022-07-30T03:45:37.639Z,67.00
2022-07-30T03:48:41.142Z,66.85
2022-07-30T03:51:44.308Z,67.60
2022-07-30T03:54:47.333Z,67.40
2022-07-30T03:57:50.252Z,66.42
2022-07-30T04:00:54.320Z,66.67
2022-07-30T04:03:57.166Z,66.74
2022-07-30T04:07:00.883Z,67.36
2022-07-30T04:10:04.404Z,67.68
2022-07-30T04:13:09.568Z,67.65
2022-07-30T04:16:39.476Z,67.11
2022-07-30T04:19:51.362Z,68.02
2022-07-30T04:22:54.254Z,68.50
2022-07-30T04:25:57.227Z,69.29
2022-07-30T04:29:00.558Z,68.45
2022-07-30T04:32:04.627Z,68.20
2022-07-30T04:35:07.763Z,67.70
2022-07-30T04:38:10.924Z,67.21
2022-07-30T04:41:13.585Z,67.52
2022-07-30T04:44:16.350Z,67.54
2022-07-30T04:47:20.677Z,66.65
2022-07-30T04:50:26.404Z,66.84
2022-07-30T04:53:29.831Z,66.72
2022-07-30T04:56:35.183Z,66.25
2022-07-30T04:59:38.290Z,65.09
2022-07-30T05:02:43.128Z,62.93
2022-07-30T05:05:46.228Z,62.53
2022-07-30T05:08:49.380Z,61.75
2022-07-30T05:11:52.632Z,60.65
2022-07-30T05:14:55.500Z,59.94
2022-07-30T05:17:59.924Z,59.69
2022-07-30T05:21:02.646Z,58.78
2022-07-30T05:24:05.974Z,58.14
2022-07-30T05:27:08.522Z,57.62
2022-07-30T05:30:12.498Z,57.50
2022-07-30T05:33:17.040Z,57.36
2022-07-30T05:36:19.867Z,56.30
2022-07-30T05:39:22.822Z,56.18
2022-07-30T05:42:25.690Z,56.27
2022-07-30T05:45:28.543Z,55.74
2022-07-30T05:48:35.478Z,54.52
2022-07-30T05:51:38.248Z,55.09
2022-07-30T05:54:40.937Z,55.11
2022-07-30T05:57:43.698Z,53.96
2022-07-30T06:00:46.602Z,53.94
2022-07-30T06:03:50.704Z,53.43
2022-07-30T06:06:53.754Z,51.72
2022-07-30T06:10:00.035Z,52.16
2022-07-30T06:13:02.744Z,51.73
2022-07-30T06:16:06.228Z,51.26
2022-07-30T06:19:10.564Z,50.97
2022-07-30T06:22:26.008Z,51.09
2022-07-30T06:25:28.970Z,50.04
2022-07-30T06:28:39.649Z,50.34
2022-07-30T06:31:42.418Z,49.80
2022-07-30T06:34:46.680Z,49.60
2022-07-30T06:37:57.665Z,49.28
2022-07-30T06:41:10.310Z,48.66
2022-07-30T06:44:13.081Z,48.85
2022-07-30T06:47:21.219Z,47.93
2022-07-30T06:50:25.434Z,47.57
2022-07-30T06:53:28.213Z,46.85
2022-07-30T06:56:30.872Z,46.84
2022-07-30T06:59:33.697Z,46.52
2022-07-30T07:02:56.553Z,46.81
2022-07-30T07:06:00.596Z,46.60
2022-07-30T07:09:03.244Z,45.97
2022-07-30T07:12:06.569Z,45.90
2022-07-30T07:15:10.274Z,45.65
2022-07-30T07:18:13.653Z,45.13
2022-07-30T07:21:17.777Z,44.53
2022-07-30T07:24:20.455Z,44.71
2022-07-30T07:27:23.527Z,43.63
2022-07-30T07:30:26.127Z,43.39
2022-07-30T07:33:28.799Z,42.98
2022-07-30T07:36:34.499Z,43.15
2022-07-30T07:39:42.038Z,43.36
2022-07-30T07:42:45.122Z,43.58
2022-07-30T07:45:48.050Z,43.22
2022-07-30T07:48:50.898Z,42.66
2022-07-30T07:51:54.980Z,41.72
2022-07-30T07:54:57.800Z,42.17
2022-07-30T07:58:01.927Z,42.08
2022-07-30T08:01:05.149Z,42.12
2022-07-30T08:04:10.175Z,41.41
2022-07-30T08:07:14.993Z,41.31
2022-07-30T08:10:18.811Z,40.70
2022-07-30T08:13:48.771Z,40.33
2022-07-30T08:16:44.504Z,38.97
2022-07-30T08:19:47.425Z,38.00
2022-07-30T08:22:51.522Z,37.53
2022-07-30T08:25:54.297Z,37.01
2022-07-30T08:28:57.130Z,37.76
2022-07-30T08:31:59.902Z,38.64
2022-07-30T08:35:02.726Z,38.96
2022-07-30T08:38:06.769Z,37.68
2022-07-30T08:41:10.146Z,38.51
2022-07-30T08:44:13.294Z,38.39
2022-07-30T08:47:18.354Z,37.93
2022-07-30T08:50:21.765Z,37.10
2022-07-30T08:53:27.328Z,36.82
2022-07-30T08:56:30.358Z,36.18
2022-07-30T08:59:59.124Z,36.47
2022-07-30T09:02:57.196Z,33.70
2022-07-30T09:05:59.857Z,33.79
2022-07-30T09:09:05.024Z,34.25
2022-07-30T09:12:38.698Z,34.07
2022-07-30T09:15:41.329Z,32.27
2022-07-30T09:18:44.460Z,32.53
2022-07-30T09:21:57.416Z,33.71
2022-07-30T09:25:01.638Z,32.59
2022-07-30T09:28:15.794Z,32.41
2022-07-30T09:31:19.814Z,33.83
2022-07-30T09:34:30.191Z,33.46
2022-07-30T09:37:32.946Z,32.39
2022-07-30T09:40:36.803Z,31.66
2022-07-30T09:43:47.994Z,31.50
2022-07-30T09:46:51.951Z,32.14
2022-07-30T09:50:07.530Z,33.87
2022-07-30T09:53:11.898Z,34.14
2022-07-30T09:56:30.349Z,33.57
2022-07-30T09:59:35.055Z,31.69
2022-07-30T10:02:38.321Z,31.21
2022-07-30T10:05:51.262Z,32.09
2022-07-30T10:08:55.678Z,32.47
2022-07-30T10:12:02.609Z,31.56
2022-07-30T10:15:06.224Z,29.87
2022-07-30T10:18:10.302Z,30.49
2022-07-30T10:21:16.909Z,32.42
2022-07-30T10:24:46.592Z,32.22
2022-07-30T10:27:44.840Z,31.19
2022-07-30T10:30:50.637Z,30.16
2022-07-30T10:33:54.304Z,30.47
2022-07-30T10:36:59.042Z,29.98
2022-07-30T10:40:07.007Z,29.54
2022-07-30T10:43:31.828Z,29.62
2022-07-30T10:46:45.886Z,29.10
2022-07-30T10:50:10.570Z,28.59
2022-07-30T10:53:33.412Z,27.63
2022-07-30T10:56:38.922Z,27.06
2022-07-30T11:00:15.405Z,27.59
2022-07-30T11:03:22.070Z,26.50
2022-07-30T11:06:29.456Z,26.58
2022-07-30T11:09:40.976Z,26.99
2022-07-30T11:12:55.344Z,27.78
2022-07-30T11:16:01.597Z,27.92
2022-07-30T11:22:38.730Z,26.58
2022-07-30T11:25:51.657Z,26.58
2022-07-30T11:28:57.440Z,27.73
2022-07-30T11:32:06.588Z,28.97
2022-07-30T11:35:15.866Z,29.50
2022-07-30T11:38:19.763Z,28.99
2022-07-30T11:41:25.986Z,27.91
2022-07-30T11:44:31.682Z,26.69
2022-07-30T11:47:36.118Z,27.68
2022-07-30T11:50:38.841Z,27.62
2022-07-30T11:53:41.304Z,27.41
2022-07-30T11:56:51.505Z,25.79
2022-07-30T11:59:55.823Z,27.00
2022-07-30T12:03:03.898Z,28.00
2022-07-30T12:06:09.257Z,27.54
2022-07-30T12:09:11.957Z,26.62
2022-07-30T12:12:23.526Z,27.25
2022-07-30T12:15:30.814Z,26.19
2022-07-30T12:18:34.915Z,26.49
2022-07-30T12:21:37.968Z,27.43
2022-07-30T12:24:40.649Z,26.81
2022-07-30T12:27:51.974Z,26.52
2022-07-30T12:30:55.402Z,25.40
2022-07-30T12:34:00.625Z,24.75
2022-07-30T12:37:10.697Z,26.26
2022-07-30T12:40:15.386Z,25.33
2022-07-30T12:43:18.272Z,25.83
2022-07-30T12:46:21.887Z,25.67
2022-07-30T12:49:39.542Z,23.87
2022-07-30T12:52:53.213Z,22.68
2022-07-30T12:55:55.881Z,20.33
2022-07-30T12:59:00.027Z,20.15
2022-07-30T13:02:03.720Z,23.79
2022-07-30T13:05:10.839Z,23.84
2022-07-30T13:08:14.690Z,16.99
2022-07-30T13:11:17.870Z,14.75
2022-07-30T13:14:23.655Z,13.27
2022-07-30T13:17:29.377Z,13.61
2022-07-30T13:20:33.259Z,12.41
2022-07-30T13:23:36.794Z,11.59
2022-07-30T13:26:39.639Z,12.11
2022-07-30T13:29:42.244Z,10.90
2022-07-30T13:32:44.815Z,9.89
2022-07-30T13:35:49.181Z,9.67
2022-07-30T13:38:52.308Z,11.31
2022-07-30T13:41:55.177Z,13.13
2022-07-30T13:44:57.848Z,15.60
2022-07-30T13:48:00.450Z,17.21
2022-07-30T13:51:05.436Z,11.84
2022-07-30T13:54:08.413Z,11.97
2022-07-30T13:57:13.284Z,11.12
2022-07-30T14:00:16.818Z,9.89
2022-07-30T14:03:19.434Z,10.05
2022-07-30T14:06:25.319Z,10.40
2022-07-30T14:09:28.092Z,10.55
2022-07-30T14:12:30.792Z,11.07
2022-07-30T14:15:33.759Z,9.44
2022-07-30T14:18:36.404Z,12.77
2022-07-30T14:21:40.802Z,10.32
2022-07-30T14:24:43.534Z,10.90
2022-07-30T14:27:46.528Z,9.52
2022-07-30T14:30:51.006Z,10.18
2022-07-30T14:33:53.557Z,7.98
2022-07-30T14:36:57.492Z,6.93
2022-07-30T14:40:00.154Z,8.77
2022-07-30T14:43:02.834Z,10.02
2022-07-30T14:46:05.367Z,15.06
2022-07-30T14:49:08.985Z,14.27
2022-07-30T14:52:13.022Z,19.77
2022-07-30T14:55:15.968Z,17.42
2022-07-30T14:58:18.669Z,12.36
2022-07-30T15:01:21.460Z,10.38
2022-07-30T15:04:24.543Z,10.54
2022-07-30T15:07:29.516Z,10.99
2022-07-30T15:10:35.235Z,12.51
2022-07-30T15:13:49.579Z,14.73
2022-07-30T15:16:53.290Z,16.79
2022-07-30T15:19:56.154Z,15.64
2022-07-30T15:23:00.213Z,13.50
2022-07-30T15:26:02.826Z,11.70
2022-07-30T15:29:05.357Z,11.31
2022-07-30T15:32:08.471Z,12.12
2022-07-30T15:35:13.885Z,12.23
2022-07-30T15:38:18.759Z,14.66
2022-07-30T15:41:21.566Z,13.49
2022-07-30T15:44:25.257Z,11.07
2022-07-30T15:47:28.987Z,10.73
2022-07-30T15:50:31.798Z,17.29
2022-07-30T15:53:35.753Z,17.19
2022-07-30T15:56:38.362Z,12.88
2022-07-30T15:59:40.943Z,16.06
2022-07-30T16:02:44.033Z,18.60
2022-07-30T16:05:51.744Z,19.39
2022-07-30T16:08:56.551Z,19.56
2022-07-30T16:11:59.811Z,20.89
2022-07-30T16:15:02.585Z,16.59
2022-07-30T16:18:06.344Z,12.79
2022-07-30T16:21:14.069Z,12.71
2022-07-30T16:24:18.196Z,14.50
2022-07-30T16:27:20.885Z,18.89
2022-07-30T16:30:27.325Z,19.63
2022-07-30T16:33:30.481Z,17.56
2022-07-30T16:36:33.194Z,15.03
2022-07-30T16:39:37.093Z,14.94
2022-07-30T16:42:39.714Z,15.53
2022-07-30T16:45:43.611Z,12.33
2022-07-30T16:48:46.225Z,13.58
2022-07-30T16:51:54.002Z,13.40
2022-07-30T16:54:57.987Z,14.05
2022-07-30T16:58:00.618Z,14.43
2022-07-30T17:01:03.384Z,13.17
2022-07-30T17:04:06.093Z,15.83
2022-07-30T17:07:14.992Z,14.16
2022-07-30T17:10:25.612Z,11.79
2022-07-30T17:13:29.077Z,15.67
2022-07-30T17:16:32.579Z,19.29
2022-07-30T17:19:35.228Z,21.64
2022-07-30T17:22:41.347Z,22.83
2022-07-30T17:25:47.050Z,23.25
2022-07-30T17:28:49.712Z,23.99
2022-07-30T17:31:52.514Z,24.86
2022-07-30T17:34:58.308Z,25.09
2022-07-30T17:38:00.918Z,25.00
2022-07-30T17:41:04.903Z,25.92
2022-07-30T17:44:08.735Z,26.15
2022-07-30T17:47:14.642Z,26.47
2022-07-30T17:50:18.938Z,26.45
2022-07-30T17:53:21.516Z,26.57
2022-07-30T17:56:27.181Z,26.62
2022-07-30T17:59:30.119Z,26.50
2022-07-30T18:02:33.203Z,26.68
2022-07-30T18:05:35.741Z,26.76
2022-07-30T18:08:38.486Z,26.75
2022-07-30T18:11:42.448Z,27.10
2022-07-30T18:14:45.131Z,26.91
2022-07-30T18:17:47.997Z,27.18
2022-07-30T18:20:50.870Z,27.49
2022-07-30T18:23:53.510Z,27.38
2022-07-30T18:26:57.336Z,27.62
2022-07-30T18:29:59.957Z,27.98
2022-07-30T18:33:02.429Z,28.10
2022-07-30T18:36:05.265Z,28.88
2022-07-30T18:39:07.934Z,29.51
2022-07-30T18:42:11.774Z,29.09
2022-07-30T18:45:14.663Z,29.81
2022-07-30T18:48:17.275Z,30.75
2022-07-30T18:51:19.750Z,31.26
2022-07-30T18:54:23.661Z,32.45
2022-07-30T18:57:27.866Z,33.23
2022-07-30T19:00:35.256Z,32.31
2022-07-30T19:03:38.540Z,34.61
2022-07-30T19:06:41.196Z,35.30
2022-07-30T19:09:45.161Z,35.93
2022-07-30T19:12:49.058Z,35.93
2022-07-30T19:15:52.197Z,36.63
2022-07-30T19:18:54.883Z,37.55
2022-07-30T19:21:58.023Z,38.26
2022-07-30T19:25:01.057Z,39.32
2022-07-30T19:28:06.358Z,39.47
2022-07-30T19:31:09.026Z,39.51
2022-07-30T19:34:11.857Z,39.82
2022-07-30T19:37:14.438Z,40.22
2022-07-30T19:40:18.815Z,40.73
2022-07-30T19:43:24.220Z,40.65
2022-07-30T19:46:27.713Z,40.87
2022-07-30T19:49:32.373Z,41.03
2022-07-30T19:52:37.528Z,41.14
2022-07-30T19:55:41.239Z,41.48
2022-07-30T19:58:46.165Z,41.69
2022-07-30T20:01:51.914Z,42.12
2022-07-30T20:04:55.025Z,42.20
2022-07-30T20:07:58.804Z,42.87
2022-07-30T20:11:02.445Z,43.02
2022-07-30T20:14:07.410Z,43.48
2022-07-30T20:17:10.062Z,43.82
2022-07-30T20:20:13.664Z,44.23
2022-07-30T20:23:16.290Z,45.02
2022-07-30T20:26:19.278Z,45.03
2022-07-30T20:29:23.695Z,44.85
2022-07-30T20:32:27.095Z,45.29
2022-07-30T20:35:29.904Z,45.45
2022-07-30T20:38:33.717Z,45.61
2022-07-30T20:41:38.677Z,45.97
2022-07-30T20:44:50.593Z,46.61
2022-07-30T20:47:56.412Z,46.58
2022-07-30T20:50:59.374Z,47.35
2022-07-30T20:54:03.573Z,46.65
2022-07-30T20:57:07.433Z,46.77
2022-07-30T21:00:20.138Z,47.23
2022-07-30T21:03:22.984Z,47.27
2022-07-30T21:06:26.307Z,47.67
2022-07-30T21:09:29.991Z,47.59
2022-07-30T21:12:53.360Z,47.80
2022-07-30T21:16:15.689Z,47.94
2022-07-30T21:19:19.310Z,48.25
2022-07-30T21:22:25.442Z,48.54
2022-07-30T21:25:32.480Z,48.39
2022-07-30T21:28:36.317Z,48.45
2022-07-30T21:32:01.805Z,48.71
2022-07-30T21:35:08.256Z,48.86
2022-07-30T21:38:11.488Z,48.75
2022-07-30T21:41:15.090Z,48.94
2022-07-30T21:44:18.286Z,49.00
2022-07-30T21:47:22.365Z,48.60
2022-07-30T21:50:25.004Z,48.99
2022-07-30T21:53:44.675Z,48.90
2022-07-30T21:56:48.566Z,48.85
2022-07-30T21:59:51.514Z,48.87
2022-07-30T22:02:55.802Z,48.70
2022-07-30T22:06:00.282Z,48.84
2022-07-30T22:09:18.248Z,49.23
2022-07-30T22:12:29.066Z,49.20
2022-07-30T22:15:34.354Z,49.76
2022-07-30T22:18:38.303Z,49.88
2022-07-30T22:21:41.896Z,50.15
2022-07-30T22:24:44.753Z,49.71
2022-07-30T22:27:56.067Z,49.72
2022-07-30T22:30:59.179Z,49.53
2022-07-30T22:34:03.313Z,49.10
2022-07-30T22:37:16.357Z,48.63
2022-07-30T22:40:21.090Z,48.41
2022-07-30T22:43:33.290Z,48.09
2022-07-30T22:46:56.473Z,48.26
2022-07-30T22:50:00.749Z,48.27
2022-07-30T22:53:23.628Z,48.04
2022-07-30T22:56:26.998Z,47.71
2022-07-30T22:59:58.574Z,47.78
2022-07-30T23:02:52.450Z,47.93
2022-07-30T23:05:57.202Z,47.90
2022-07-30T23:09:00.194Z,48.73
2022-07-30T23:12:03.500Z,48.89
2022-07-30T23:15:07.484Z,49.18
2022-07-30T23:18:10.122Z,49.91
2022-07-30T23:21:15.075Z,49.79
2022-07-30T23:24:17.964Z,50.62
2022-07-30T23:27:21.271Z,50.63
2022-07-30T23:30:25.604Z,50.72
2022-07-30T23:33:34.752Z,50.99
2022-07-30T23:36:38.879Z,51.06
2022-07-30T23:39:41.658Z,51.64
2022-07-30T23:42:44.498Z,51.44
2022-07-30T23:45:47.186Z,51.93
2022-07-30T23:48:49.861Z,52.36
2022-07-30T23:51:54.073Z,52.69
2022-07-30T23:54:56.682Z,52.23
2022-07-30T23:58:00.469Z,52.35
